sensor_id;sensor_type;location;lat;lon;timestamp;pressure;altitude;pressure_sealevel;temperature;humidity
79331;BME280;68797;49.782;19.054;2023-07-13T00:00:57;96946.22;;;19.68;82.11
79331;BME280;68797;49.782;19.054;2023-07-13T00:03:47;96926.75;;;19.64;81.69
79331;BME280;68797;49.782;19.054;2023-07-13T00:06:25;96963.50;;;19.89;82.04
79331;BME280;68797;49.782;19.054;2023-07-13T00:09:50;96948.25;;;19.77;82.49
79331;BME280;68797;49.782;19.054;2023-07-13T00:12:38;96965.94;;;19.92;82.92
79331;BME280;68797;49.782;19.054;2023-07-13T00:15:22;96943.66;;;19.90;82.68
79331;BME280;68797;49.782;19.054;2023-07-13T00:18:03;96945.19;;;19.82;83.52
79331;BME280;68797;49.782;19.054;2023-07-13T00:20:47;96898.88;;;19.53;83.45
79331;BME280;68797;49.782;19.054;2023-07-13T00:23:25;96923.97;;;19.53;83.68
79331;BME280;68797;49.782;19.054;2023-07-13T00:26:05;96910.63;;;19.52;83.33
79331;BME280;68797;49.782;19.054;2023-07-13T00:28:44;96934.53;;;19.56;83.93
79331;BME280;68797;49.782;19.054;2023-07-13T00:31:34;96915.16;;;19.51;84.61
79331;BME280;68797;49.782;19.054;2023-07-13T00:34:03;96870.59;;;19.10;84.80
79331;BME280;68797;49.782;19.054;2023-07-13T00:36:47;96910.66;;;19.26;85.58
79331;BME280;68797;49.782;19.054;2023-07-13T00:39:22;96900.59;;;19.04;85.89
79331;BME280;68797;49.782;19.054;2023-07-13T00:42:03;96872.53;;;18.83;86.00
79331;BME280;68797;49.782;19.054;2023-07-13T00:45:03;96915.75;;;19.05;86.00
79331;BME280;68797;49.782;19.054;2023-07-13T00:47:59;96913.19;;;19.04;86.17
79331;BME280;68797;49.782;19.054;2023-07-13T00:50:31;96919.63;;;19.01;85.49
79331;BME280;68797;49.782;19.054;2023-07-13T00:53:35;96902.03;;;18.97;85.74
79331;BME280;68797;49.782;19.054;2023-07-13T00:56:10;96904.38;;;19.02;85.60
79331;BME280;68797;49.782;19.054;2023-07-13T00:59:14;96881.03;;;19.02;84.93
79331;BME280;68797;49.782;19.054;2023-07-13T01:02:07;96885.19;;;19.06;84.59
79331;BME280;68797;49.782;19.054;2023-07-13T01:04:36;96854.06;;;18.78;84.69
79331;BME280;68797;49.782;19.054;2023-07-13T01:07:15;96875.69;;;18.64;85.32
79331;BME280;68797;49.782;19.054;2023-07-13T01:09:47;96860.69;;;18.60;84.77
79331;BME280;68797;49.782;19.054;2023-07-13T01:13:05;96890.50;;;18.70;84.84
79331;BME280;68797;49.782;19.054;2023-07-13T01:15:49;96885.97;;;18.57;85.06
79331;BME280;68797;49.782;19.054;2023-07-13T01:18:25;96874.69;;;18.52;84.82
79331;BME280;68797;49.782;19.054;2023-07-13T01:21:06;96903.66;;;18.74;85.13
79331;BME280;68797;49.782;19.054;2023-07-13T01:23:52;96900.72;;;18.77;85.39
79331;BME280;68797;49.782;19.054;2023-07-13T01:26:25;96907.28;;;18.73;85.61
79331;BME280;68797;49.782;19.054;2023-07-13T01:29:16;96907.13;;;18.62;86.13
79331;BME280;68797;49.782;19.054;2023-07-13T01:32:13;96859.97;;;18.45;85.66
79331;BME280;68797;49.782;19.054;2023-07-13T01:34:54;96889.03;;;18.66;85.52
79331;BME280;68797;49.782;19.054;2023-07-13T01:37:42;96900.28;;;18.83;85.42
79331;BME280;68797;49.782;19.054;2023-07-13T01:40:18;96898.47;;;18.71;86.65
79331;BME280;68797;49.782;19.054;2023-07-13T01:43:04;96871.25;;;18.63;86.55
79331;BME280;68797;49.782;19.054;2023-07-13T01:46:15;96881.38;;;18.85;85.99
79331;BME280;68797;49.782;19.054;2023-07-13T01:48:44;96850.69;;;18.62;86.40
79331;BME280;68797;49.782;19.054;2023-07-13T01:51:38;96840.28;;;18.57;87.01
79331;BME280;68797;49.782;19.054;2023-07-13T01:54:12;96861.91;;;18.81;86.46
79331;BME280;68797;49.782;19.054;2023-07-13T01:56:48;96863.63;;;18.70;86.60
79331;BME280;68797;49.782;19.054;2023-07-13T01:59:30;96856.75;;;18.53;87.10
79331;BME280;68797;49.782;19.054;2023-07-13T02:01:59;96862.63;;;18.58;87.03
79331;BME280;68797;49.782;19.054;2023-07-13T02:05:11;96849.31;;;18.56;87.13
79331;BME280;68797;49.782;19.054;2023-07-13T02:07:47;96843.50;;;18.37;88.25
79331;BME280;68797;49.782;19.054;2023-07-13T02:10:32;96845.66;;;18.45;87.44
79331;BME280;68797;49.782;19.054;2023-07-13T02:13:09;96880.38;;;18.61;87.38
79331;BME280;68797;49.782;19.054;2023-07-13T02:15:52;96886.06;;;18.56;87.62
79331;BME280;68797;49.782;19.054;2023-07-13T02:18:33;96887.47;;;18.62;88.34
79331;BME280;68797;49.782;19.054;2023-07-13T02:21:10;96887.94;;;18.68;88.65
79331;BME280;68797;49.782;19.054;2023-07-13T02:24:14;96885.47;;;18.65;88.88
79331;BME280;68797;49.782;19.054;2023-07-13T02:26:49;96894.91;;;18.83;88.14
79331;BME280;68797;49.782;19.054;2023-07-13T02:29:56;96880.84;;;18.80;88.82
79331;BME280;68797;49.782;19.054;2023-07-13T02:33:08;96878.25;;;18.78;88.62
79331;BME280;68797;49.782;19.054;2023-07-13T02:35:38;96844.81;;;18.70;87.78
79331;BME280;68797;49.782;19.054;2023-07-13T02:38:52;96889.44;;;18.98;87.75
79331;BME280;68797;49.782;19.054;2023-07-13T02:41:38;96865.44;;;18.95;88.35
79331;BME280;68797;49.782;19.054;2023-07-13T02:44:18;96814.03;;;18.61;87.72
79331;BME280;68797;49.782;19.054;2023-07-13T02:46:49;96850.75;;;18.75;88.12
79331;BME280;68797;49.782;19.054;2023-07-13T02:49:23;96842.34;;;18.79;87.42
79331;BME280;68797;49.782;19.054;2023-07-13T02:52:06;96862.22;;;18.90;87.55
79331;BME280;68797;49.782;19.054;2023-07-13T02:54:46;96844.81;;;18.70;87.52
79331;BME280;68797;49.782;19.054;2023-07-13T02:57:17;96877.91;;;18.83;87.08
79331;BME280;68797;49.782;19.054;2023-07-13T03:00:13;96846.03;;;18.66;87.26
79331;BME280;68797;49.782;19.054;2023-07-13T03:02:47;96854.91;;;18.53;87.49
79331;BME280;68797;49.782;19.054;2023-07-13T03:05:41;96887.81;;;18.70;87.13
79331;BME280;68797;49.782;19.054;2023-07-13T03:08:29;96850.19;;;18.57;86.99
79331;BME280;68797;49.782;19.054;2023-07-13T03:11:08;96863.13;;;18.65;87.03
79331;BME280;68797;49.782;19.054;2023-07-13T03:19:34;96854.72;;;18.69;87.42
79331;BME280;68797;49.782;19.054;2023-07-13T03:22:30;96850.94;;;18.72;87.49
79331;BME280;68797;49.782;19.054;2023-07-13T03:25:01;96842.88;;;18.72;87.40
79331;BME280;68797;49.782;19.054;2023-07-13T03:27:32;96826.00;;;18.70;87.82
79331;BME280;68797;49.782;19.054;2023-07-13T03:30:13;96825.34;;;18.79;87.02
79331;BME280;68797;49.782;19.054;2023-07-13T03:32:59;96807.19;;;18.70;87.18
79331;BME280;68797;49.782;19.054;2023-07-13T03:35:31;96842.97;;;18.96;87.07
79331;BME280;68797;49.782;19.054;2023-07-13T03:38:01;96806.78;;;18.76;86.16
79331;BME280;68797;49.782;19.054;2023-07-13T03:40:35;96803.41;;;18.72;86.32
79331;BME280;68797;49.782;19.054;2023-07-13T03:43:17;96846.28;;;18.99;85.72
79331;BME280;68797;49.782;19.054;2023-07-13T03:45:56;96847.53;;;19.06;85.65
79331;BME280;68797;49.782;19.054;2023-07-13T03:49:19;96853.16;;;19.03;85.96
79331;BME280;68797;49.782;19.054;2023-07-13T03:52:24;96836.63;;;18.97;86.21
79331;BME280;68797;49.782;19.054;2023-07-13T03:55:01;96822.53;;;18.93;85.27
79331;BME280;68797;49.782;19.054;2023-07-13T03:57:57;96832.22;;;18.96;85.55
79331;BME280;68797;49.782;19.054;2023-07-13T04:00:28;96850.59;;;19.02;85.90
79331;BME280;68797;49.782;19.054;2023-07-13T04:03:19;96846.09;;;18.90;86.62
79331;BME280;68797;49.782;19.054;2023-07-13T04:06:22;96836.97;;;18.67;87.81
79331;BME280;68797;49.782;19.054;2023-07-13T04:09:24;96852.44;;;18.89;87.00
79331;BME280;68797;49.782;19.054;2023-07-13T04:12:13;96843.84;;;18.83;87.03
79331;BME280;68797;49.782;19.054;2023-07-13T04:14:41;96853.94;;;18.93;87.38
79331;BME280;68797;49.782;19.054;2023-07-13T04:17:23;96822.78;;;18.77;87.31
79331;BME280;68797;49.782;19.054;2023-07-13T04:20:04;96848.78;;;18.90;87.69
79331;BME280;68797;49.782;19.054;2023-07-13T04:22:54;96862.31;;;19.01;87.26
79331;BME280;68797;49.782;19.054;2023-07-13T04:25:30;96842.31;;;18.92;87.37
79331;BME280;68797;49.782;19.054;2023-07-13T04:28:10;96830.63;;;18.80;88.10
79331;BME280;68797;49.782;19.054;2023-07-13T04:30:45;96837.59;;;18.96;87.85
79331;BME280;68797;49.782;19.054;2023-07-13T04:33:18;96836.63;;;18.84;88.30
79331;BME280;68797;49.782;19.054;2023-07-13T04:36:09;96792.16;;;18.67;87.84
79331;BME280;68797;49.782;19.054;2023-07-13T04:38:50;96835.00;;;18.94;87.66
79331;BME280;68797;49.782;19.054;2023-07-13T04:41:34;96792.44;;;18.88;87.58
79331;BME280;68797;49.782;19.054;2023-07-13T04:44:15;96823.72;;;19.26;86.60
79331;BME280;68797;49.782;19.054;2023-07-13T04:46:53;96801.41;;;19.12;86.67
79331;BME280;68797;49.782;19.054;2023-07-13T04:49:30;96838.84;;;19.39;86.20
79331;BME280;68797;49.782;19.054;2023-07-13T04:52:01;96785.25;;;19.12;86.12
79331;BME280;68797;49.782;19.054;2023-07-13T04:54:40;96823.69;;;19.38;85.87
79331;BME280;68797;49.782;19.054;2023-07-13T04:57:12;96772.06;;;19.09;86.95
79331;BME280;68797;49.782;19.054;2023-07-13T04:59:54;96786.59;;;19.31;85.46
79331;BME280;68797;49.782;19.054;2023-07-13T05:02:25;96816.53;;;19.63;84.78
79331;BME280;68797;49.782;19.054;2023-07-13T05:04:59;96795.34;;;19.45;84.92
79331;BME280;68797;49.782;19.054;2023-07-13T05:07:38;96822.22;;;19.58;85.16
79331;BME280;68797;49.782;19.054;2023-07-13T05:10:14;96798.13;;;19.57;84.32
79331;BME280;68797;49.782;19.054;2023-07-13T05:12:44;96797.34;;;19.55;83.17
79331;BME280;68797;49.782;19.054;2023-07-13T05:15:22;96825.59;;;19.97;82.91
79331;BME280;68797;49.782;19.054;2023-07-13T05:18:01;96843.84;;;20.05;82.18
79331;BME280;68797;49.782;19.054;2023-07-13T05:20:41;96842.66;;;20.20;81.76
79331;BME280;68797;49.782;19.054;2023-07-13T05:23:12;96834.22;;;20.24;81.10
79331;BME280;68797;49.782;19.054;2023-07-13T05:25:58;96824.84;;;20.41;80.72
79331;BME280;68797;49.782;19.054;2023-07-13T05:28:50;96809.81;;;20.72;79.70
79331;BME280;68797;49.782;19.054;2023-07-13T05:31:22;96817.28;;;20.91;78.53
79331;BME280;68797;49.782;19.054;2023-07-13T05:34:20;96851.88;;;21.08;76.58
79331;BME280;68797;49.782;19.054;2023-07-13T05:37:01;96841.53;;;21.13;77.34
79331;BME280;68797;49.782;19.054;2023-07-13T05:39:50;96849.75;;;21.45;76.65
79331;BME280;68797;49.782;19.054;2023-07-13T05:42:44;96837.69;;;21.61;74.96
79331;BME280;68797;49.782;19.054;2023-07-13T05:45:18;96828.34;;;22.08;73.08
79331;BME280;68797;49.782;19.054;2023-07-13T05:48:07;96842.25;;;22.45;71.81
79331;BME280;68797;49.782;19.054;2023-07-13T05:50:41;96816.53;;;22.51;70.57
79331;BME280;68797;49.782;19.054;2023-07-13T05:53:22;96843.16;;;22.76;69.69
79331;BME280;68797;49.782;19.054;2023-07-13T05:56:29;96844.09;;;22.86;70.61
79331;BME280;68797;49.782;19.054;2023-07-13T05:59:12;96843.59;;;22.81;71.31
79331;BME280;68797;49.782;19.054;2023-07-13T06:01:52;96814.38;;;22.75;71.11
79331;BME280;68797;49.782;19.054;2023-07-13T06:04:33;96810.34;;;22.90;69.79
79331;BME280;68797;49.782;19.054;2023-07-13T06:07:13;96819.88;;;22.85;69.50
79331;BME280;68797;49.782;19.054;2023-07-13T06:09:55;96817.81;;;22.77;69.74
79331;BME280;68797;49.782;19.054;2023-07-13T06:12:28;96841.44;;;22.96;68.97
79331;BME280;68797;49.782;19.054;2023-07-13T06:15:13;96844.72;;;23.00;70.00
79331;BME280;68797;49.782;19.054;2023-07-13T06:17:58;96816.59;;;23.22;69.18
79331;BME280;68797;49.782;19.054;2023-07-13T06:20:36;96829.09;;;23.13;67.98
79331;BME280;68797;49.782;19.054;2023-07-13T06:23:15;96812.34;;;23.38;68.40
79331;BME280;68797;49.782;19.054;2023-07-13T06:25:49;96824.03;;;23.29;67.58
79331;BME280;68797;49.782;19.054;2023-07-13T06:28:31;96837.88;;;23.45;67.87
79331;BME280;68797;49.782;19.054;2023-07-13T06:31:20;96827.47;;;23.41;67.82
79331;BME280;68797;49.782;19.054;2023-07-13T06:33:59;96842.06;;;23.59;68.29
79331;BME280;68797;49.782;19.054;2023-07-13T06:36:49;96841.69;;;23.64;68.27
79331;BME280;68797;49.782;19.054;2023-07-13T06:39:21;96834.34;;;23.55;68.07
79331;BME280;68797;49.782;19.054;2023-07-13T06:41:53;96844.72;;;23.40;67.31
79331;BME280;68797;49.782;19.054;2023-07-13T06:44:27;96830.44;;;23.28;68.52
79331;BME280;68797;49.782;19.054;2023-07-13T06:47:05;96874.41;;;23.51;68.05
79331;BME280;68797;49.782;19.054;2023-07-13T06:49:37;96843.38;;;23.25;68.07
79331;BME280;68797;49.782;19.054;2023-07-13T06:52:07;96882.56;;;23.21;67.36
79331;BME280;68797;49.782;19.054;2023-07-13T06:55:13;96867.63;;;22.96;67.78
79331;BME280;68797;49.782;19.054;2023-07-13T06:58:01;96848.88;;;22.83;66.82
79331;BME280;68797;49.782;19.054;2023-07-13T07:00:35;96880.66;;;23.11;65.48
79331;BME280;68797;49.782;19.054;2023-07-13T07:03:48;96879.44;;;23.25;66.43
79331;BME280;68797;49.782;19.054;2023-07-13T07:06:21;96884.59;;;22.98;66.06
79331;BME280;68797;49.782;19.054;2023-07-13T07:08:53;96887.94;;;23.11;65.94
79331;BME280;68797;49.782;19.054;2023-07-13T07:11:34;96865.38;;;22.80;66.52
79331;BME280;68797;49.782;19.054;2023-07-13T07:14:13;96894.13;;;22.81;67.49
79331;BME280;68797;49.782;19.054;2023-07-13T07:16:57;96858.69;;;22.53;68.72
79331;BME280;68797;49.782;19.054;2023-07-13T07:19:33;96898.69;;;22.59;69.38
79331;BME280;68797;49.782;19.054;2023-07-13T07:22:09;96875.69;;;22.44;71.50
79331;BME280;68797;49.782;19.054;2023-07-13T07:24:50;96882.22;;;22.42;70.42
79331;BME280;68797;49.782;19.054;2023-07-13T07:27:35;96863.72;;;22.26;73.77
79331;BME280;68797;49.782;19.054;2023-07-13T07:30:21;96869.00;;;22.27;72.52
79331;BME280;68797;49.782;19.054;2023-07-13T07:33:00;96892.81;;;22.33;74.18
79331;BME280;68797;49.782;19.054;2023-07-13T07:36:14;96876.31;;;22.16;74.75
79331;BME280;68797;49.782;19.054;2023-07-13T07:38:48;96889.81;;;22.16;74.71
79331;BME280;68797;49.782;19.054;2023-07-13T07:41:29;96882.19;;;22.21;73.38
79331;BME280;68797;49.782;19.054;2023-07-13T07:44:05;96912.75;;;22.32;74.10
79331;BME280;68797;49.782;19.054;2023-07-13T07:46:49;96890.56;;;22.18;72.92
79331;BME280;68797;49.782;19.054;2023-07-13T07:49:28;96916.88;;;22.37;73.98
79331;BME280;68797;49.782;19.054;2023-07-13T07:52:07;96894.81;;;22.31;74.56
79331;BME280;68797;49.782;19.054;2023-07-13T07:54:47;96919.53;;;22.48;73.21
79331;BME280;68797;49.782;19.054;2023-07-13T07:57:46;96932.28;;;22.57;74.74
79331;BME280;68797;49.782;19.054;2023-07-13T08:00:33;96912.69;;;22.44;75.34
79331;BME280;68797;49.782;19.054;2023-07-13T08:03:10;96924.81;;;22.49;74.41
79331;BME280;68797;49.782;19.054;2023-07-13T08:06:09;96924.22;;;22.46;74.72
79331;BME280;68797;49.782;19.054;2023-07-13T08:08:40;96926.34;;;22.42;74.13
79331;BME280;68797;49.782;19.054;2023-07-13T08:11:20;96925.13;;;22.35;73.87
79331;BME280;68797;49.782;19.054;2023-07-13T08:14:00;96929.41;;;22.38;75.03
79331;BME280;68797;49.782;19.054;2023-07-13T08:16:40;96930.53;;;22.35;75.81
79331;BME280;68797;49.782;19.054;2023-07-13T08:19:12;96925.34;;;22.43;76.24
79331;BME280;68797;49.782;19.054;2023-07-13T08:21:45;96928.25;;;22.51;77.51
79331;BME280;68797;49.782;19.054;2023-07-13T08:24:28;96924.34;;;22.44;75.79
79331;BME280;68797;49.782;19.054;2023-07-13T08:27:33;96874.75;;;22.34;74.50
79331;BME280;68797;49.782;19.054;2023-07-13T08:30:08;96911.44;;;22.69;75.15
79331;BME280;68797;49.782;19.054;2023-07-13T08:32:55;96908.38;;;22.83;74.04
79331;BME280;68797;49.782;19.054;2023-07-13T08:35:31;96907.31;;;22.85;73.16
79331;BME280;68797;49.782;19.054;2023-07-13T08:38:35;96902.53;;;22.99;73.46
79331;BME280;68797;49.782;19.054;2023-07-13T08:41:22;96877.84;;;22.92;72.86
79331;BME280;68797;49.782;19.054;2023-07-13T08:44:00;96874.75;;;22.76;73.28
79331;BME280;68797;49.782;19.054;2023-07-13T08:46:55;96891.31;;;23.03;73.00
79331;BME280;68797;49.782;19.054;2023-07-13T08:49:34;96883.69;;;23.18;73.29
79331;BME280;68797;49.782;19.054;2023-07-13T08:52:39;96869.03;;;23.21;73.06
79331;BME280;68797;49.782;19.054;2023-07-13T08:55:42;96849.28;;;22.99;72.53
79331;BME280;68797;49.782;19.054;2023-07-13T08:58:28;96891.34;;;23.13;72.33
79331;BME280;68797;49.782;19.054;2023-07-13T09:04:34;96827.16;;;22.84;70.24
79331;BME280;68797;49.782;19.054;2023-07-13T09:10:42;96884.53;;;22.88;72.74
79331;BME280;68797;49.782;19.054;2023-07-13T09:14:02;96839.13;;;22.50;72.16
79331;BME280;68797;49.782;19.054;2023-07-13T09:17:43;96884.25;;;22.70;73.64
79331;BME280;68797;49.782;19.054;2023-07-13T09:20:42;96850.44;;;22.34;73.67
79331;BME280;68797;49.782;19.054;2023-07-13T09:23:35;96897.31;;;22.44;75.39
79331;BME280;68797;49.782;19.054;2023-07-13T09:26:51;96916.03;;;22.36;76.05
79331;BME280;68797;49.782;19.054;2023-07-13T09:29:28;96920.34;;;21.95;75.50
79331;BME280;68797;49.782;19.054;2023-07-13T09:32:07;96918.25;;;21.33;78.27
79331;BME280;68797;49.782;19.054;2023-07-13T09:34:40;96911.19;;;20.75;80.67
79331;BME280;68797;49.782;19.054;2023-07-13T09:37:32;96953.88;;;19.98;83.07
79331;BME280;68797;49.782;19.054;2023-07-13T09:40:02;96946.31;;;19.30;82.88
79331;BME280;68797;49.782;19.054;2023-07-13T09:42:38;96933.09;;;18.76;83.44
79331;BME280;68797;49.782;19.054;2023-07-13T09:45:27;96959.41;;;18.71;84.81
79331;BME280;68797;49.782;19.054;2023-07-13T09:48:12;96969.03;;;18.88;85.19
79331;BME280;68797;49.782;19.054;2023-07-13T09:50:48;96966.22;;;19.02;83.98
79331;BME280;68797;49.782;19.054;2023-07-13T09:53:18;96927.28;;;18.82;85.27
79331;BME280;68797;49.782;19.054;2023-07-13T09:56:19;96952.53;;;19.05;84.63
79331;BME280;68797;49.782;19.054;2023-07-13T09:59:22;96975.56;;;19.22;85.00
79331;BME280;68797;49.782;19.054;2023-07-13T10:01:52;96962.13;;;19.09;85.19
79331;BME280;68797;49.782;19.054;2023-07-13T10:04:32;96975.78;;;19.19;85.89
79331;BME280;68797;49.782;19.054;2023-07-13T10:07:11;96937.94;;;18.96;85.95
79331;BME280;68797;49.782;19.054;2023-07-13T10:10:12;96982.56;;;18.86;87.89
79331;BME280;68797;49.782;19.054;2023-07-13T10:13:08;96998.47;;;18.76;88.54
79331;BME280;68797;49.782;19.054;2023-07-13T10:16:01;96995.66;;;18.65;88.29
79331;BME280;68797;49.782;19.054;2023-07-13T10:19:23;97043.94;;;18.67;89.27
79331;BME280;68797;49.782;19.054;2023-07-13T10:22:26;97016.25;;;18.52;89.55
79331;BME280;68797;49.782;19.054;2023-07-13T10:25:25;97040.72;;;18.47;89.37
79331;BME280;68797;49.782;19.054;2023-07-13T10:28:32;97040.44;;;18.52;89.01
79331;BME280;68797;49.782;19.054;2023-07-13T10:31:13;97022.78;;;18.61;89.69
79331;BME280;68797;49.782;19.054;2023-07-13T10:33:52;97019.44;;;18.44;90.46
79331;BME280;68797;49.782;19.054;2023-07-13T10:36:52;96996.75;;;18.09;92.49
79331;BME280;68797;49.782;19.054;2023-07-13T10:39:34;97034.19;;;18.24;91.31
79331;BME280;68797;49.782;19.054;2023-07-13T10:42:14;97040.22;;;18.01;92.04
79331;BME280;68797;49.782;19.054;2023-07-13T10:44:52;97044.66;;;17.88;92.20
79331;BME280;68797;49.782;19.054;2023-07-13T10:47:21;97047.25;;;17.89;92.00
79331;BME280;68797;49.782;19.054;2023-07-13T10:50:01;97068.94;;;18.13;92.29
79331;BME280;68797;49.782;19.054;2023-07-13T10:53:17;97043.09;;;17.98;91.58
79331;BME280;68797;49.782;19.054;2023-07-13T10:59:23;97078.19;;;17.95;92.05
79331;BME280;68797;49.782;19.054;2023-07-13T11:02:26;97121.91;;;18.11;91.75
79331;BME280;68797;49.782;19.054;2023-07-13T11:05:30;97128.06;;;17.99;91.51
79331;BME280;68797;49.782;19.054;2023-07-13T11:08:21;97119.22;;;17.83;92.51
79331;BME280;68797;49.782;19.054;2023-07-13T11:11:02;97128.34;;;18.09;91.52
79331;BME280;68797;49.782;19.054;2023-07-13T11:16:47;97083.56;;;17.95;91.02
79331;BME280;68797;49.782;19.054;2023-07-13T11:19:38;97139.31;;;18.33;90.15
79331;BME280;68797;49.782;19.054;2023-07-13T11:22:15;97127.22;;;18.25;90.50
79331;BME280;68797;49.782;19.054;2023-07-13T11:24:59;97120.44;;;18.20;90.35
79331;BME280;68797;49.782;19.054;2023-07-13T11:27:41;97129.38;;;18.20;89.87
79331;BME280;68797;49.782;19.054;2023-07-13T11:31:12;97132.41;;;18.28;89.53
79331;BME280;68797;49.782;19.054;2023-07-13T11:34:13;97111.28;;;18.37;88.87
79331;BME280;68797;49.782;19.054;2023-07-13T11:36:51;97129.66;;;18.57;88.28
79331;BME280;68797;49.782;19.054;2023-07-13T11:39:41;97116.69;;;18.64;86.87
79331;BME280;68797;49.782;19.054;2023-07-13T11:42:24;97131.94;;;18.63;87.73
79331;BME280;68797;49.782;19.054;2023-07-13T11:45:20;97100.47;;;18.51;89.21
79331;BME280;68797;49.782;19.054;2023-07-13T11:48:03;97129.06;;;18.66;88.04
79331;BME280;68797;49.782;19.054;2023-07-13T11:50:37;97128.75;;;18.71;88.26
79331;BME280;68797;49.782;19.054;2023-07-13T11:53:09;97109.75;;;18.74;87.58
79331;BME280;68797;49.782;19.054;2023-07-13T11:55:47;97117.16;;;18.70;88.11
79331;BME280;68797;49.782;19.054;2023-07-13T11:58:24;97093.81;;;18.71;88.42
79331;BME280;68797;49.782;19.054;2023-07-13T12:01:03;97112.72;;;18.96;87.68
79331;BME280;68797;49.782;19.054;2023-07-13T12:03:40;97102.81;;;18.97;87.46
79331;BME280;68797;49.782;19.054;2023-07-13T12:06:35;97091.97;;;19.11;87.42
79331;BME280;68797;49.782;19.054;2023-07-13T12:09:14;97092.97;;;19.23;88.46
79331;BME280;68797;49.782;19.054;2023-07-13T12:12:18;97082.41;;;19.20;85.69
79331;BME280;68797;49.782;19.054;2023-07-13T12:14:54;97060.69;;;19.61;86.12
79331;BME280;68797;49.782;19.054;2023-07-13T12:17:31;97083.63;;;19.54;84.49
79331;BME280;68797;49.782;19.054;2023-07-13T12:20:26;97113.09;;;19.93;86.33
79331;BME280;68797;49.782;19.054;2023-07-13T12:23:10;97119.03;;;19.98;86.44
79331;BME280;68797;49.782;19.054;2023-07-13T12:26:01;97110.38;;;20.19;81.53
79331;BME280;68797;49.782;19.054;2023-07-13T12:28:52;97111.31;;;20.30;81.35
79331;BME280;68797;49.782;19.054;2023-07-13T12:31:42;97100.16;;;20.48;83.11
79331;BME280;68797;49.782;19.054;2023-07-13T12:34:54;97087.25;;;20.40;80.82
79331;BME280;68797;49.782;19.054;2023-07-13T12:37:25;97115.47;;;20.47;82.64
79331;BME280;68797;49.782;19.054;2023-07-13T12:39:58;97080.56;;;20.33;83.11
79331;BME280;68797;49.782;19.054;2023-07-13T12:42:36;97073.00;;;20.38;83.13
79331;BME280;68797;49.782;19.054;2023-07-13T12:45:26;97093.78;;;20.73;82.64
79331;BME280;68797;49.782;19.054;2023-07-13T12:48:12;97087.53;;;20.48;79.88
79331;BME280;68797;49.782;19.054;2023-07-13T12:50:47;97044.13;;;20.40;81.32
79331;BME280;68797;49.782;19.054;2023-07-13T12:56:34;97059.22;;;21.02;76.92
79331;BME280;68797;49.782;19.054;2023-07-13T12:59:20;97077.19;;;21.25;79.41
79331;BME280;68797;49.782;19.054;2023-07-13T13:01:57;97108.44;;;21.40;80.70
79331;BME280;68797;49.782;19.054;2023-07-13T13:04:39;97106.47;;;21.42;79.55
79331;BME280;68797;49.782;19.054;2023-07-13T13:07:16;97090.72;;;21.01;77.58
79331;BME280;68797;49.782;19.054;2023-07-13T13:09:49;97100.03;;;20.62;77.23
79331;BME280;68797;49.782;19.054;2023-07-13T13:12:21;97097.28;;;20.25;78.66
79331;BME280;68797;49.782;19.054;2023-07-13T13:15:06;97109.16;;;20.23;80.77
79331;BME280;68797;49.782;19.054;2023-07-13T13:17:49;97134.28;;;20.23;81.59
79331;BME280;68797;49.782;19.054;2023-07-13T13:20:23;97098.53;;;20.09;80.98
79331;BME280;68797;49.782;19.054;2023-07-13T13:23:19;97094.56;;;20.01;81.98
79331;BME280;68797;49.782;19.054;2023-07-13T13:25:58;97093.34;;;20.18;81.95
79331;BME280;68797;49.782;19.054;2023-07-13T13:28:31;97117.69;;;20.29;80.55
79331;BME280;68797;49.782;19.054;2023-07-13T13:31:03;97089.28;;;20.37;80.20
79331;BME280;68797;49.782;19.054;2023-07-13T13:33:44;97094.47;;;20.40;80.60
79331;BME280;68797;49.782;19.054;2023-07-13T13:36:38;97094.16;;;20.31;80.01
79331;BME280;68797;49.782;19.054;2023-07-13T13:39:34;97111.19;;;20.45;79.82
79331;BME280;68797;49.782;19.054;2023-07-13T13:42:20;97074.03;;;20.24;80.22
79331;BME280;68797;49.782;19.054;2023-07-13T13:44:55;97117.09;;;20.37;78.27
79331;BME280;68797;49.782;19.054;2023-07-13T13:47:32;97076.38;;;19.92;80.24
79331;BME280;68797;49.782;19.054;2023-07-13T13:52:44;97124.13;;;20.27;80.20
79331;BME280;68797;49.782;19.054;2023-07-13T13:55:22;97134.84;;;20.03;79.63
79331;BME280;68797;49.782;19.054;2023-07-13T13:57:52;97132.91;;;20.05;82.14
79331;BME280;68797;49.782;19.054;2023-07-13T14:00:40;97105.38;;;19.76;81.36
79331;BME280;68797;49.782;19.054;2023-07-13T14:03:40;97101.28;;;19.58;82.07
79331;BME280;68797;49.782;19.054;2023-07-13T14:06:30;97114.19;;;19.40;81.77
79331;BME280;68797;49.782;19.054;2023-07-13T14:09:07;97086.91;;;19.06;81.11
79331;BME280;68797;49.782;19.054;2023-07-13T14:11:40;97119.47;;;19.41;83.52
79331;BME280;68797;49.782;19.054;2023-07-13T14:14:23;97140.25;;;19.52;83.90
79331;BME280;68797;49.782;19.054;2023-07-13T14:17:22;97109.44;;;19.43;82.14
79331;BME280;68797;49.782;19.054;2023-07-13T14:19:56;97103.66;;;19.75;81.82
79331;BME280;68797;49.782;19.054;2023-07-13T14:22:35;97094.28;;;19.81;82.03
79331;BME280;68797;49.782;19.054;2023-07-13T14:25:08;97082.53;;;19.82;81.17
79331;BME280;68797;49.782;19.054;2023-07-13T14:27:55;97095.34;;;19.78;80.64
79331;BME280;68797;49.782;19.054;2023-07-13T14:30:29;97084.34;;;19.94;82.15
79331;BME280;68797;49.782;19.054;2023-07-13T14:33:38;97130.09;;;20.19;80.71
79331;BME280;68797;49.782;19.054;2023-07-13T14:36:33;97104.97;;;20.19;79.02
79331;BME280;68797;49.782;19.054;2023-07-13T14:39:26;97159.91;;;20.42;79.10
79331;BME280;68797;49.782;19.054;2023-07-13T14:41:58;97151.50;;;20.46;79.40
79331;BME280;68797;49.782;19.054;2023-07-13T14:44:31;97174.22;;;20.55;77.70